Chattanooga, Oklahoma
Current Conditions -  °F | °C
As of 2:53 PM on Thursday 18 Dec 2014 (Local Time) from KLAW Reporting Station
Overcast Overcast  
Wind Chill: 43°   Ceiling: 800
Heat Index: 45°   Visibility: 10mi
Dew Point: 41°   Wind: 5mph
Humidity: 86%   Direction: 10°N
Pressure: 30.11"   Gusts: NA
Location:  34.42°N, 98.66°W
Report Text: KLAW 182053Z 01004KT 10SM OVC008 07/05 A3011 RMK AO2 CIG 007V013 SLP202 T00720050 56017
Loading
Personal Weather Stations






























Interactive Weather Map New forecast layout! Learn more

10-Day Weather Forecast

Advertisements
Track Severe Weather on mobile